createdAt,value
2022-12-23T00:00:40.443Z,-0.03
2022-12-23T00:03:11.659Z,-0.03
2022-12-23T00:05:38.860Z,-0.06
2022-12-23T00:08:06.457Z,-0.09
2022-12-23T02:11:07.734Z,-1.35
2022-12-23T02:14:13.169Z,-1.00
2022-12-23T02:16:40.779Z,-0.99
2022-12-23T02:19:16.779Z,-0.93
2022-12-23T02:22:05.317Z,-0.84
2022-12-23T02:25:20.299Z,-0.81
2022-12-23T02:27:59.463Z,-0.82
2022-12-23T02:30:45.551Z,-0.85
2022-12-23T02:33:17.674Z,-0.90
2022-12-23T02:36:07.865Z,-0.94
2022-12-23T02:38:41.666Z,-0.89
2022-12-23T02:41:43.593Z,-0.79
2022-12-23T02:44:19.389Z,-0.76
2022-12-23T02:46:57.117Z,-0.78
2022-12-23T02:49:26.779Z,-0.81
2022-12-23T02:51:55.272Z,-0.86
2022-12-23T02:54:31.092Z,-0.91
2022-12-23T02:56:58.267Z,-0.95
2022-12-23T02:59:27.272Z,-0.95
2022-12-23T03:01:56.544Z,-0.88
2022-12-23T03:04:23.713Z,-0.83
2022-12-23T03:06:52.706Z,-0.81
2022-12-23T03:09:36.052Z,-0.81
2022-12-23T03:12:07.591Z,-0.83
2022-12-23T03:14:36.889Z,-0.85
2022-12-23T03:17:26.092Z,-0.88
2022-12-23T03:20:01.546Z,-0.91
2022-12-23T03:22:38.723Z,-0.87
2022-12-23T03:25:22.093Z,-0.79
2022-12-23T03:27:52.136Z,-0.74
2022-12-23T03:30:19.224Z,-0.75
2022-12-23T03:32:48.673Z,-0.77
2022-12-23T03:35:17.724Z,-0.78
2022-12-23T03:37:46.614Z,-0.80
2022-12-23T03:40:18.187Z,-0.82
2022-12-23T03:42:47.941Z,-0.85
2022-12-23T03:45:41.579Z,-0.83
2022-12-23T03:48:23.597Z,-0.75
2022-12-23T03:50:53.754Z,-0.68
2022-12-23T03:53:26.233Z,-0.67
2022-12-23T03:56:01.872Z,-0.66
2022-12-23T03:58:45.707Z,-0.68
2022-12-23T04:01:17.607Z,-0.70
2022-12-23T04:03:54.026Z,-0.74
2022-12-23T04:06:21.052Z,-0.77
2022-12-23T04:08:50.973Z,-0.79
2022-12-23T04:11:17.948Z,-0.76
2022-12-23T04:13:47.112Z,-0.67
2022-12-23T04:16:14.156Z,-0.59
2022-12-23T04:18:41.305Z,-0.58
2022-12-23T04:21:08.156Z,-0.58
2022-12-23T04:23:35.141Z,-0.59
2022-12-23T04:26:02.591Z,-0.59
2022-12-23T04:28:29.625Z,-0.59
2022-12-23T04:30:56.568Z,-0.59
2022-12-23T04:33:23.497Z,-0.55
2022-12-23T04:35:50.426Z,-0.47
2022-12-23T04:38:17.274Z,-0.40
2022-12-23T04:40:47.595Z,-0.38
2022-12-23T04:43:14.963Z,-0.38
2022-12-23T04:45:41.996Z,-0.39
2022-12-23T04:48:09.672Z,-0.42
2022-12-23T04:50:36.606Z,-0.45
2022-12-23T04:53:03.504Z,-0.48
2022-12-23T04:55:30.498Z,-0.44
2022-12-23T04:57:57.473Z,-0.37
2022-12-23T05:00:24.707Z,-0.32
2022-12-23T05:02:51.771Z,-0.31
2022-12-23T05:05:18.929Z,-0.33
2022-12-23T05:07:45.779Z,-0.34
2022-12-23T05:10:12.878Z,-0.36
2022-12-23T05:12:39.932Z,-0.38
2022-12-23T05:15:07.996Z,-0.39
2022-12-23T05:17:35.451Z,-0.36
2022-12-23T05:20:02.396Z,-0.29
2022-12-23T05:22:29.370Z,-0.23
2022-12-23T05:25:01.074Z,-0.21
2022-12-23T05:27:28.041Z,-0.22
2022-12-23T05:29:54.961Z,-0.24
2022-12-23T05:32:21.830Z,-0.26
2022-12-23T05:34:51.239Z,-0.27
2022-12-23T05:37:18.394Z,-0.22
2022-12-23T05:39:46.756Z,-0.12
2022-12-23T05:42:17.700Z,-0.07
2022-12-23T05:44:45.048Z,-0.05
2022-12-23T05:47:11.992Z,-0.05
2022-12-23T05:49:38.970Z,-0.05
2022-12-23T05:52:05.985Z,-0.07
2022-12-23T05:54:35.108Z,-0.11
2022-12-23T05:57:02.232Z,-0.08
2022-12-23T05:59:31.277Z,-0.00
2022-12-23T06:01:59.041Z,0.03
2022-12-23T06:04:26.302Z,0.02
2022-12-23T06:06:53.498Z,-0.00
2022-12-23T06:09:20.538Z,-0.04
2022-12-23T06:11:47.685Z,-0.06
2022-12-23T06:14:14.774Z,-0.10
2022-12-23T06:16:41.719Z,-0.13
2022-12-23T06:19:08.736Z,-0.11
2022-12-23T06:21:35.673Z,-0.05
2022-12-23T06:24:02.720Z,-0.02
2022-12-23T06:26:29.764Z,-0.03
2022-12-23T06:28:56.815Z,-0.05
2022-12-23T06:31:23.894Z,-0.08
2022-12-23T06:33:56.847Z,-0.12
2022-12-23T06:36:23.793Z,-0.17
2022-12-23T06:38:50.741Z,-0.21
2022-12-23T06:41:17.985Z,-0.19
2022-12-23T06:43:54.282Z,-0.13
2022-12-23T06:46:21.856Z,-0.10
2022-12-23T06:48:48.955Z,-0.11
2022-12-23T06:51:15.900Z,-0.13
2022-12-23T06:53:42.870Z,-0.16
2022-12-23T06:56:10.104Z,-0.19
2022-12-23T06:58:37.060Z,-0.22
2022-12-23T07:01:04.207Z,-0.26
2022-12-23T07:03:31.380Z,-0.23
2022-12-23T07:05:58.487Z,-0.14
2022-12-23T07:08:25.537Z,-0.11
2022-12-23T07:10:58.830Z,-0.11
2022-12-23T07:13:26.389Z,-0.13
2022-12-23T07:15:53.329Z,-0.16
2022-12-23T07:18:22.316Z,-0.18
2022-12-23T07:20:50.268Z,-0.19
2022-12-23T07:23:17.289Z,-0.14
2022-12-23T07:25:44.293Z,-0.04
2022-12-23T07:28:13.685Z,0.04
2022-12-23T07:30:40.658Z,0.06
2022-12-23T07:33:07.679Z,0.05
2022-12-23T07:35:34.935Z,0.03
2022-12-23T07:38:01.979Z,-0.01
2022-12-23T07:40:33.738Z,-0.04
2022-12-23T07:43:00.789Z,-0.04
2022-12-23T07:45:28.652Z,0.06
2022-12-23T07:48:00.620Z,0.20
2022-12-23T07:50:27.904Z,0.34
2022-12-23T07:52:55.010Z,0.46
2022-12-23T07:55:22.054Z,0.62
2022-12-23T07:57:50.049Z,0.78
2022-12-23T08:00:18.013Z,0.92
2022-12-23T08:02:45.157Z,1.06
2022-12-23T08:05:12.676Z,1.28
2022-12-23T12:14:03.838Z,7.97
2022-12-23T12:16:31.037Z,8.44
2022-12-23T12:19:10.678Z,8.61
2022-12-23T12:21:38.660Z,8.86
2022-12-23T12:24:18.683Z,9.11
2022-12-23T12:26:51.464Z,9.33
2022-12-23T12:29:45.784Z,9.51
2022-12-23T12:32:21.923Z,9.70
2022-12-23T12:34:53.791Z,9.76
2022-12-23T12:37:31.456Z,9.76
2022-12-23T12:40:09.371Z,9.76
2022-12-23T12:42:44.517Z,9.78
2022-12-23T12:45:28.860Z,9.88
2022-12-23T12:48:18.651Z,10.06
2022-12-23T12:51:07.837Z,10.26
2022-12-23T12:53:34.966Z,10.52
2022-12-23T12:56:13.173Z,10.71
2022-12-23T12:58:40.055Z,10.85
2022-12-23T13:01:21.257Z,10.96
2022-12-23T13:04:11.691Z,10.99
2022-12-23T13:07:11.608Z,10.87
2022-12-23T13:09:55.661Z,10.79
2022-12-23T13:12:30.894Z,10.72
2022-12-23T13:15:04.018Z,10.65
2022-12-23T13:17:30.853Z,10.62
2022-12-23T13:20:13.027Z,10.56
2022-12-23T13:22:42.814Z,10.42
2022-12-23T13:25:14.857Z,10.22
2022-12-23T13:27:46.763Z,9.98
2022-12-23T13:30:18.945Z,9.78
2022-12-23T13:33:17.933Z,9.56
2022-12-23T13:35:58.503Z,9.33
2022-12-23T13:38:47.161Z,9.13
2022-12-23T13:41:34.801Z,8.93
2022-12-23T13:44:05.445Z,8.74
2022-12-23T13:46:54.581Z,8.57
2022-12-23T13:49:40.562Z,8.39
2022-12-23T13:52:19.793Z,8.22
2022-12-23T13:55:10.226Z,8.08
2022-12-23T13:57:45.070Z,7.91
2022-12-23T14:00:18.133Z,7.73
2022-12-23T14:02:52.376Z,7.55
2022-12-23T14:05:35.267Z,7.37
2022-12-23T14:08:33.525Z,7.19
2022-12-23T14:11:03.492Z,7.03
2022-12-23T14:13:44.201Z,7.01
2022-12-23T14:16:28.889Z,7.02
2022-12-23T14:19:07.315Z,6.97
2022-12-23T14:21:43.264Z,6.88
2022-12-23T14:24:26.045Z,6.78
2022-12-23T14:27:08.355Z,6.67
2022-12-23T14:29:35.400Z,6.58
2022-12-23T14:32:02.351Z,6.48
2022-12-23T14:34:33.182Z,6.35
2022-12-23T14:37:25.521Z,6.22
2022-12-23T14:39:52.922Z,6.12
2022-12-23T14:42:40.507Z,6.13
2022-12-23T14:45:30.701Z,6.16
2022-12-23T14:47:57.743Z,6.13
2022-12-23T14:50:42.756Z,6.08
2022-12-23T14:53:23.697Z,6.02
2022-12-23T14:55:52.020Z,5.96
2022-12-23T14:58:29.588Z,5.91
2022-12-23T15:01:10.567Z,5.87
2022-12-23T15:03:54.553Z,5.81
2022-12-23T15:06:43.634Z,5.75
2022-12-23T15:09:20.957Z,5.80
2022-12-23T15:11:48.107Z,5.88
2022-12-23T15:14:49.124Z,5.91
2022-12-23T15:17:30.606Z,5.95
2022-12-23T15:20:10.376Z,5.96
2022-12-23T15:22:39.088Z,5.94
2022-12-23T15:25:19.089Z,5.91
2022-12-23T15:27:46.027Z,5.85
2022-12-23T15:30:13.902Z,5.79
2022-12-23T15:32:46.069Z,5.73
2022-12-23T15:35:46.286Z,5.68
2022-12-23T15:38:14.580Z,5.70
2022-12-23T15:40:41.620Z,5.76
2022-12-23T15:43:24.108Z,5.74
2022-12-23T15:45:51.396Z,5.68
2022-12-23T15:48:29.195Z,5.61
2022-12-23T15:51:00.430Z,5.55
2022-12-23T15:53:38.230Z,5.50
2022-12-23T15:56:11.212Z,5.42
2022-12-23T15:58:40.667Z,5.39
2022-12-23T16:01:07.684Z,5.40
2022-12-23T16:03:35.963Z,5.47
2022-12-23T16:06:10.756Z,5.49
2022-12-23T20:15:06.281Z,3.18
2022-12-23T20:17:33.385Z,3.55
2022-12-23T20:20:02.484Z,3.62
2022-12-23T20:22:29.447Z,3.72
2022-12-23T20:24:56.323Z,3.75
2022-12-23T20:27:27.807Z,3.73
2022-12-23T20:29:55.286Z,3.69
2022-12-23T20:32:22.130Z,3.63
2022-12-23T20:34:50.431Z,3.56
2022-12-23T20:37:17.856Z,3.48
2022-12-23T20:39:46.369Z,3.47
2022-12-23T20:42:13.382Z,3.50
2022-12-23T20:44:40.324Z,3.48
2022-12-23T20:47:07.405Z,3.42
2022-12-23T20:49:34.854Z,3.37
2022-12-23T20:52:06.953Z,3.30
2022-12-23T20:54:35.100Z,3.24
2022-12-23T20:57:02.841Z,3.20
2022-12-23T20:59:30.084Z,3.22
2022-12-23T21:02:03.385Z,3.27
2022-12-23T21:04:35.619Z,3.28
2022-12-23T21:07:06.114Z,3.25
2022-12-23T21:09:35.273Z,3.22
2022-12-23T21:12:06.835Z,3.17
2022-12-23T21:14:35.761Z,3.11
2022-12-23T21:17:05.400Z,3.07
2022-12-23T21:19:37.697Z,3.12
2022-12-23T21:22:05.077Z,3.20
2022-12-23T21:24:34.085Z,3.25
2022-12-23T21:27:02.421Z,3.28
2022-12-23T21:29:32.258Z,3.30
2022-12-23T21:32:03.478Z,3.28
2022-12-23T21:34:30.528Z,3.25
2022-12-23T21:36:57.522Z,3.22
2022-12-23T21:39:24.486Z,3.23
2022-12-23T21:41:52.896Z,3.30
2022-12-23T21:44:19.836Z,3.35
2022-12-23T21:46:46.839Z,3.36
2022-12-23T21:49:13.744Z,3.33
2022-12-23T21:51:41.805Z,3.29
2022-12-23T21:54:10.628Z,3.23
2022-12-23T21:56:37.944Z,3.17
2022-12-23T21:59:06.682Z,3.19
2022-12-23T22:01:33.826Z,3.23
2022-12-23T22:04:00.923Z,3.24
2022-12-23T22:06:29.709Z,3.21
2022-12-23T22:14:58.548Z,3.06
2022-12-23T22:17:25.523Z,2.98
2022-12-23T22:19:52.639Z,2.97
2022-12-23T22:22:19.603Z,3.01
2022-12-23T22:24:50.837Z,3.01
2022-12-23T22:27:20.142Z,2.96
2022-12-23T22:29:47.820Z,2.91
2022-12-23T22:32:14.750Z,2.87
2022-12-23T22:34:44.032Z,2.82
2022-12-23T22:37:11.047Z,2.77
2022-12-23T22:39:38.021Z,2.80
2022-12-23T22:42:05.070Z,2.87
2022-12-23T22:44:32.114Z,2.89
2022-12-23T22:46:59.171Z,2.87
2022-12-23T22:49:26.463Z,2.85
2022-12-23T22:51:59.035Z,2.79
2022-12-23T22:54:25.935Z,2.74
2022-12-23T22:56:52.928Z,2.70
2022-12-23T22:59:24.435Z,2.71
